Time;durP1;ratioP1;P1;durP2;ratioP2;P2;SDS_P1;SDS_P2;PMS_P1;PMS_P2;Temp;Humidity;BMP_temperature;BMP_pressure;BME280_temperature;BME280_humidity;BME280_pressure;Samples;Min_cycle;Max_cycle;Signal;HPM_P1;HPM_P2
2024/02/20 00:01:39;;;;;;;21.40;7.23;;;7.60;99.90;;;;;;4187647;28;20219;-70
2024/02/20 00:03:41;;;;;;;15.83;6.93;;;7.60;99.90;;;;;;4185653;28;20226;-70
2024/02/20 00:05:43;;;;;;;14.30;6.67;;;7.70;99.90;;;;;;4179238;28;20200;-70
2024/02/20 00:07:44;;;;;;;18.57;7.57;;;7.60;99.90;;;;;;4182522;28;20231;-70
2024/02/20 00:09:47;;;;;;;15.40;7.27;;;7.60;99.90;;;;;;4188484;28;20203;-70
2024/02/20 00:11:48;;;;;;;15.57;7.27;;;7.70;99.90;;;;;;4187256;28;20220;-70
2024/02/20 00:13:50;;;;;;;15.67;6.90;;;7.70;99.90;;;;;;4184684;28;20296;-71
2024/02/20 00:15:52;;;;;;;23.23;7.60;;;7.70;99.90;;;;;;4187034;28;20217;-71
2024/02/20 00:17:54;;;;;;;25.77;8.17;;;7.70;99.90;;;;;;4186305;28;20240;-70
2024/02/20 00:19:56;;;;;;;20.57;7.33;;;7.70;99.90;;;;;;4186681;28;20207;-70
2024/02/20 00:21:57;;;;;;;14.17;6.97;;;7.70;99.90;;;;;;4182576;28;20204;-70
2024/02/20 00:23:59;;;;;;;19.10;8.37;;;7.70;99.90;;;;;;4184559;28;20228;-71
2024/02/20 00:26:01;;;;;;;16.17;7.43;;;7.70;99.90;;;;;;4183232;28;20234;-71
2024/02/20 00:28:03;;;;;;;17.10;7.13;;;7.70;99.90;;;;;;4186079;28;20212;-70
2024/02/20 00:30:06;;;;;;;16.37;7.20;;;7.70;99.90;;;;;;4189747;28;20229;-71
2024/02/20 00:32:10;;;;;;;15.93;7.20;;;7.70;99.90;;;;;;4186048;28;20214;-70
2024/02/20 00:34:12;;;;;;;13.17;6.77;;;7.70;99.90;;;;;;4189855;28;20282;-70
2024/02/20 00:36:16;;;;;;;17.73;6.77;;;7.70;99.90;;;;;;4188266;28;20206;-71
2024/02/20 00:38:18;;;;;;;13.70;6.57;;;7.70;99.90;;;;;;4185895;28;20290;-70
2024/02/20 00:40:19;;;;;;;12.97;6.87;;;7.70;99.90;;;;;;4187527;28;20656;-71
2024/02/20 00:42:21;;;;;;;17.20;6.47;;;7.70;99.90;;;;;;4180934;28;20204;-70
2024/02/20 00:44:22;;;;;;;14.80;6.43;;;7.70;99.90;;;;;;4184739;28;20206;-71
2024/02/20 00:46:25;;;;;;;11.23;5.57;;;7.70;99.90;;;;;;4184167;28;20206;-70
2024/02/20 00:48:28;;;;;;;18.23;6.43;;;7.70;99.90;;;;;;4187461;28;20215;-71
2024/02/20 00:50:31;;;;;;;13.27;6.13;;;7.70;99.90;;;;;;4186689;28;20197;-71
2024/02/20 00:52:33;;;;;;;15.17;6.33;;;7.70;99.90;;;;;;4188203;28;21225;-71
2024/02/20 00:54:40;;;;;;;14.27;6.83;;;7.70;99.90;;;;;;4183578;28;20808;-70
2024/02/20 00:56:44;;;;;;;15.27;6.47;;;7.70;99.90;;;;;;4191240;28;20211;-70
2024/02/20 00:58:46;;;;;;;14.30;6.07;;;7.60;99.90;;;;;;4185894;28;20203;-71
2024/02/20 01:00:48;;;;;;;11.77;6.40;;;7.70;99.90;;;;;;4186478;28;20207;-71
2024/02/20 01:02:50;;;;;;;10.93;5.47;;;7.60;99.90;;;;;;4189481;28;20629;-70
2024/02/20 01:04:57;;;;;;;14.17;5.93;;;7.60;99.90;;;;;;4187083;28;20211;-70
2024/02/20 01:07:01;;;;;;;14.50;6.30;;;7.50;99.90;;;;;;4190204;28;20676;-70
2024/02/20 01:09:05;;;;;;;11.77;5.73;;;7.50;99.90;;;;;;4186245;28;20199;-70
2024/02/20 01:11:07;;;;;;;17.87;6.13;;;7.50;99.90;;;;;;4184950;28;20234;-70
2024/02/20 01:13:08;;;;;;;12.17;5.70;;;7.40;99.90;;;;;;4186868;28;20242;-70
2024/02/20 01:15:11;;;;;;;13.93;6.30;;;7.40;99.90;;;;;;4188490;28;20698;-70
2024/02/20 01:17:13;;;;;;;13.10;5.93;;;7.40;99.90;;;;;;4187220;28;20235;-70
2024/02/20 01:19:14;;;;;;;12.13;5.43;;;7.40;99.90;;;;;;4187196;28;20665;-70
2024/02/20 01:21:17;;;;;;;12.47;5.53;;;7.40;99.90;;;;;;4189395;28;20206;-70
2024/02/20 01:23:19;;;;;;;12.30;5.67;;;7.40;99.90;;;;;;4186872;28;20235;-70
2024/02/20 01:25:24;;;;;;;9.90;5.30;;;7.40;99.90;;;;;;4187688;28;20586;-71
2024/02/20 01:27:26;;;;;;;15.37;5.63;;;7.40;99.90;;;;;;4186156;28;20214;-70
2024/02/20 01:29:29;;;;;;;13.70;5.53;;;7.40;99.90;;;;;;4184163;28;20207;-70
2024/02/20 01:31:31;;;;;;;8.97;4.70;;;7.40;99.90;;;;;;4183617;28;20232;-71
2024/02/20 01:33:33;;;;;;;10.90;5.00;;;7.40;99.90;;;;;;4185041;28;20226;-70
2024/02/20 01:35:36;;;;;;;11.23;5.00;;;7.40;99.90;;;;;;4191800;28;20198;-70
2024/02/20 01:37:41;;;;;;;12.57;5.73;;;7.50;99.90;;;;;;4188855;28;20213;-70
2024/02/20 01:39:42;;;;;;;13.90;5.37;;;7.40;99.90;;;;;;4186761;28;20208;-70
2024/02/20 01:41:43;;;;;;;12.43;4.70;;;7.40;99.90;;;;;;4184370;28;20553;-71
2024/02/20 01:43:45;;;;;;;9.10;4.83;;;7.50;99.90;;;;;;4187144;28;20273;-71
2024/02/20 01:45:47;;;;;;;10.93;4.83;;;7.50;99.90;;;;;;4182958;28;20211;-70
2024/02/20 01:47:48;;;;;;;13.57;5.13;;;7.50;99.90;;;;;;4184259;28;20226;-71
2024/02/20 01:49:51;;;;;;;13.13;5.13;;;7.50;99.90;;;;;;4183600;28;20200;-70
2024/02/20 01:51:55;;;;;;;11.47;5.00;;;7.50;99.90;;;;;;4189350;28;20207;-70
2024/02/20 01:54:00;;;;;;;11.90;5.20;;;7.50;99.90;;;;;;4188363;28;20243;-71
2024/02/20 01:56:06;;;;;;;13.17;5.10;;;7.50;99.90;;;;;;4180601;28;20276;-70
2024/02/20 01:58:07;;;;;;;10.00;4.90;;;7.50;99.90;;;;;;4185293;28;20199;-71
2024/02/20 02:00:13;;;;;;;12.50;5.10;;;7.50;99.90;;;;;;4185259;28;20233;-70
2024/02/20 02:02:15;;;;;;;10.03;5.03;;;7.50;99.90;;;;;;4186837;28;20203;-70
2024/02/20 02:04:21;;;;;;;9.33;4.57;;;7.50;99.90;;;;;;4178494;28;20393;-71
2024/02/20 02:06:29;;;;;;;13.70;4.90;;;7.50;99.90;;;;;;4186089;28;20257;-70
2024/02/20 02:08:31;;;;;;;12.30;5.27;;;7.50;99.90;;;;;;4183400;28;20214;-70
2024/02/20 02:10:34;;;;;;;11.83;4.67;;;7.50;99.90;;;;;;4187011;28;20698;-70
2024/02/20 02:12:36;;;;;;;14.83;5.00;;;7.50;99.90;;;;;;4194479;28;20241;-70
2024/02/20 02:14:45;;;;;;;9.60;4.60;;;7.50;99.90;;;;;;4191131;28;20197;-71
2024/02/20 02:16:47;;;;;;;11.30;5.10;;;7.60;99.90;;;;;;4184702;28;20205;-71
2024/02/20 02:18:50;;;;;;;8.57;4.70;;;7.50;99.90;;;;;;4181464;28;20211;-71
2024/02/20 02:20:52;;;;;;;7.60;4.40;;;7.50;99.90;;;;;;4186805;28;20218;-71
2024/02/20 02:22:54;;;;;;;11.23;4.53;;;7.50;99.90;;;;;;4188030;28;20257;-71
2024/02/20 02:24:56;;;;;;;10.30;4.80;;;7.50;99.90;;;;;;4187980;28;20250;-70
2024/02/20 02:26:59;;;;;;;9.20;4.73;;;7.50;99.90;;;;;;4185799;28;20246;-71
2024/02/20 02:29:03;;;;;;;12.17;4.83;;;7.50;99.90;;;;;;4184286;28;20797;-70
2024/02/20 02:31:05;;;;;;;13.23;5.03;;;7.50;99.90;;;;;;4185262;28;20297;-71
2024/02/20 02:33:07;;;;;;;12.97;4.77;;;7.50;99.90;;;;;;4178971;28;20241;-70
2024/02/20 02:35:13;;;;;;;7.97;4.30;;;7.50;99.90;;;;;;4182235;28;20242;-71
2024/02/20 02:37:15;;;;;;;12.40;4.73;;;7.50;99.90;;;;;;4187945;28;20312;-70
2024/02/20 02:39:20;;;;;;;9.10;4.63;;;7.50;99.90;;;;;;4183428;28;20226;-70
2024/02/20 02:41:22;;;;;;;10.83;4.67;;;7.50;99.90;;;;;;4179800;28;20219;-71
2024/02/20 02:43:26;;;;;;;11.27;4.60;;;7.50;99.90;;;;;;4187003;28;20240;-70
2024/02/20 02:45:31;;;;;;;11.53;4.87;;;7.50;99.90;;;;;;4189535;28;20341;-70
2024/02/20 02:47:33;;;;;;;10.43;4.50;;;7.50;99.90;;;;;;4184054;28;20211;-71
2024/02/20 02:49:35;;;;;;;7.77;4.50;;;7.50;99.90;;;;;;4182535;28;20213;-70
2024/02/20 02:51:37;;;;;;;8.43;4.47;;;7.50;99.90;;;;;;4184746;28;20239;-71
2024/02/20 02:53:40;;;;;;;8.53;3.93;;;7.50;99.90;;;;;;4189602;28;20231;-71
2024/02/20 02:55:42;;;;;;;9.10;4.03;;;7.50;99.90;;;;;;4183211;28;20199;-70
2024/02/20 02:57:44;;;;;;;13.07;4.30;;;7.50;99.90;;;;;;4183902;28;20577;-71
2024/02/20 02:59:47;;;;;;;10.00;4.97;;;7.50;99.90;;;;;;4181037;28;20241;-70
2024/02/20 03:01:49;;;;;;;8.37;4.50;;;7.50;99.90;;;;;;4187043;28;20222;-71
2024/02/20 03:03:51;;;;;;;8.83;4.37;;;7.50;99.90;;;;;;4185555;28;20227;-70
2024/02/20 03:05:53;;;;;;;12.07;4.80;;;7.50;99.90;;;;;;4186329;28;20202;-70
2024/02/20 03:07:54;;;;;;;8.37;3.93;;;7.50;99.90;;;;;;4184256;28;20203;-70
2024/02/20 03:09:56;;;;;;;7.57;3.60;;;7.40;99.90;;;;;;4184360;28;20226;-70
2024/02/20 03:11:58;;;;;;;10.37;4.30;;;7.50;99.90;;;;;;4185464;28;20636;-70
2024/02/20 03:14:03;;;;;;;8.67;4.37;;;7.50;99.90;;;;;;4194561;28;20227;-72
2024/02/20 03:16:07;;;;;;;9.20;4.07;;;7.50;99.90;;;;;;4189299;28;20627;-71
2024/02/20 03:18:09;;;;;;;8.77;4.33;;;7.50;99.90;;;;;;4185241;28;20238;-71
2024/02/20 03:20:14;;;;;;;9.10;3.93;;;7.40;99.90;;;;;;4191663;28;20289;-71
2024/02/20 03:22:18;;;;;;;13.30;4.63;;;7.40;99.90;;;;;;4193459;28;20230;-71
2024/02/20 03:24:20;;;;;;;7.10;3.83;;;7.40;99.90;;;;;;4194380;28;20775;-70
2024/02/20 03:26:22;;;;;;;9.30;4.17;;;7.40;99.90;;;;;;4186799;28;20242;-71
2024/02/20 03:28:26;;;;;;;10.80;4.33;;;7.40;99.90;;;;;;4184378;28;20217;-70
2024/02/20 03:30:29;;;;;;;8.50;4.10;;;7.40;99.90;;;;;;4184389;28;20206;-71
2024/02/20 03:32:32;;;;;;;7.90;3.80;;;7.40;99.90;;;;;;4182824;28;20226;-70
2024/02/20 03:34:33;;;;;;;13.10;4.40;;;7.40;99.90;;;;;;4183364;28;20250;-71
2024/02/20 03:36:35;;;;;;;7.87;4.37;;;7.40;99.90;;;;;;4186172;28;20202;-71
2024/02/20 03:38:36;;;;;;;10.90;4.37;;;7.50;99.90;;;;;;4187405;28;20207;-70
2024/02/20 03:40:38;;;;;;;8.70;4.60;;;7.40;99.90;;;;;;4184128;28;20211;-71
2024/02/20 03:42:40;;;;;;;9.73;4.60;;;7.50;99.90;;;;;;4187446;28;20247;-70
2024/02/20 03:44:42;;;;;;;8.27;4.47;;;7.50;99.90;;;;;;4183209;28;20320;-71
2024/02/20 03:46:44;;;;;;;9.03;4.70;;;7.50;99.90;;;;;;4182872;28;20211;-70
2024/02/20 03:48:47;;;;;;;9.30;4.23;;;7.50;99.90;;;;;;4180448;28;20202;-70
2024/02/20 03:50:50;;;;;;;8.50;4.20;;;7.50;99.90;;;;;;4181156;28;20199;-70
2024/02/20 03:52:52;;;;;;;11.47;4.90;;;7.50;99.90;;;;;;4191176;28;20254;-70
2024/02/20 03:54:54;;;;;;;8.77;4.37;;;7.50;99.90;;;;;;4185299;28;20224;-70
2024/02/20 03:56:56;;;;;;;10.63;4.40;;;7.50;99.90;;;;;;4183902;28;20287;-70
2024/02/20 03:58:58;;;;;;;10.23;4.60;;;7.50;99.90;;;;;;4187009;28;20285;-70
2024/02/20 04:01:00;;;;;;;9.33;4.00;;;7.50;99.90;;;;;;4185693;28;20738;-70
2024/02/20 04:03:04;;;;;;;8.07;4.40;;;7.60;99.90;;;;;;4188828;28;20256;-71
2024/02/20 04:05:11;;;;;;;8.47;4.07;;;7.60;99.90;;;;;;4188763;28;20276;-70
2024/02/20 04:07:13;;;;;;;11.43;4.10;;;7.60;99.90;;;;;;4184780;28;20238;-70
2024/02/20 04:09:15;;;;;;;6.40;3.40;;;7.60;99.90;;;;;;4185693;28;20724;-70
2024/02/20 04:11:17;;;;;;;9.30;3.63;;;7.60;99.90;;;;;;4190609;28;20246;-71
2024/02/20 04:13:19;;;;;;;7.57;3.57;;;7.60;99.90;;;;;;4186927;28;20280;-71
2024/02/20 04:15:21;;;;;;;7.37;3.77;;;7.60;99.90;;;;;;4187229;28;20206;-70
2024/02/20 04:17:22;;;;;;;5.93;3.47;;;7.60;99.90;;;;;;4189272;28;20238;-71
2024/02/20 04:19:24;;;;;;;8.30;3.27;;;7.60;99.90;;;;;;4186604;28;20215;-71
2024/02/20 04:21:27;;;;;;;6.53;3.33;;;7.60;99.90;;;;;;4189052;28;20800;-71
2024/02/20 04:23:29;;;;;;;5.57;3.07;;;7.60;99.90;;;;;;4189449;28;20226;-71
2024/02/20 04:25:30;;;;;;;6.47;3.10;;;7.60;99.90;;;;;;4190435;28;20611;-72
2024/02/20 04:27:32;;;;;;;6.13;2.60;;;7.60;99.90;;;;;;4182872;28;20199;-72
2024/02/20 04:29:34;;;;;;;8.83;3.70;;;7.50;99.90;;;;;;4186953;28;20243;-72
2024/02/20 04:31:36;;;;;;;6.50;2.70;;;7.50;99.90;;;;;;4189089;28;20210;-71
2024/02/20 04:33:38;;;;;;;8.20;3.00;;;7.50;99.90;;;;;;4187403;28;20219;-71
2024/02/20 04:35:41;;;;;;;6.00;3.00;;;7.50;99.90;;;;;;4188090;28;20206;-71
2024/02/20 04:37:47;;;;;;;5.27;3.17;;;7.50;99.90;;;;;;4190922;28;20271;-71
2024/02/20 04:39:48;;;;;;;5.57;3.37;;;7.60;99.90;;;;;;4190874;28;20211;-72
2024/02/20 04:41:50;;;;;;;5.97;3.17;;;7.50;99.90;;;;;;4183413;28;20203;-71
2024/02/20 04:43:52;;;;;;;7.10;3.37;;;7.50;99.90;;;;;;4188916;28;20935;-72
2024/02/20 04:45:54;;;;;;;10.43;3.17;;;7.50;99.90;;;;;;4185124;28;20210;-70
2024/02/20 04:47:56;;;;;;;6.47;2.93;;;7.50;99.90;;;;;;4188896;28;20591;-71
2024/02/20 04:49:57;;;;;;;4.63;2.93;;;7.50;99.90;;;;;;4190332;28;20336;-72
2024/02/20 04:51:59;;;;;;;7.73;3.40;;;7.50;99.90;;;;;;4186107;28;20215;-71
2024/02/20 04:54:02;;;;;;;5.97;3.00;;;7.50;99.90;;;;;;4188219;28;20241;-72
2024/02/20 04:56:05;;;;;;;5.40;2.70;;;7.40;99.90;;;;;;4190287;28;20218;-71
2024/02/20 04:58:07;;;;;;;3.90;2.33;;;7.40;99.90;;;;;;4182815;28;20202;-71
2024/02/20 05:00:10;;;;;;;5.70;2.70;;;7.40;99.90;;;;;;4185842;28;20734;-71
2024/02/20 05:02:12;;;;;;;6.13;2.50;;;7.40;99.90;;;;;;4187302;28;20256;-76
2024/02/20 05:04:14;;;;;;;5.17;2.43;;;7.40;99.90;;;;;;4186560;28;20216;-71
2024/02/20 05:06:16;;;;;;;2.33;1.70;;;7.40;99.90;;;;;;4184992;28;20233;-72
2024/02/20 05:08:18;;;;;;;6.90;1.97;;;7.40;99.90;;;;;;4187805;28;20642;-71
2024/02/20 05:10:22;;;;;;;5.57;1.70;;;7.40;99.90;;;;;;4186998;28;20209;-71
2024/02/20 05:12:23;;;;;;;3.40;1.83;;;7.40;99.90;;;;;;4179897;28;20246;-71
2024/02/20 05:14:25;;;;;;;5.00;1.60;;;7.30;99.90;;;;;;4187235;28;20556;-71
2024/02/20 05:16:27;;;;;;;2.47;1.80;;;7.30;99.90;;;;;;4185525;28;20210;-71
2024/02/20 05:18:29;;;;;;;4.73;1.67;;;7.20;99.90;;;;;;4183895;28;20210;-72
2024/02/20 05:20:31;;;;;;;7.37;3.07;;;7.20;99.90;;;;;;4184573;28;20212;-71
2024/02/20 05:22:33;;;;;;;4.13;1.77;;;7.10;99.90;;;;;;4186599;28;20226;-72
2024/02/20 05:24:35;;;;;;;3.63;1.60;;;7.10;99.90;;;;;;4188221;28;20244;-71
2024/02/20 05:26:38;;;;;;;3.50;1.40;;;7.10;99.90;;;;;;4185467;28;20228;-72
2024/02/20 05:28:40;;;;;;;3.97;1.73;;;7.00;99.90;;;;;;4186739;28;20206;-71
2024/02/20 05:30:42;;;;;;;3.00;1.57;;;6.90;99.90;;;;;;4184580;28;20210;-72
2024/02/20 05:32:44;;;;;;;2.37;1.23;;;6.90;99.90;;;;;;4187571;28;20225;-72
2024/02/20 05:34:46;;;;;;;1.50;1.00;;;6.90;99.90;;;;;;4191032;28;20545;-73
2024/02/20 05:36:47;;;;;;;5.47;1.20;;;6.90;99.90;;;;;;4193458;28;20206;-73
2024/02/20 05:38:49;;;;;;;2.40;0.90;;;6.90;99.90;;;;;;4195969;28;20206;-73
2024/02/20 05:40:51;;;;;;;3.70;1.20;;;6.90;99.90;;;;;;4193147;28;20210;-72
2024/02/20 05:42:54;;;;;;;2.40;1.10;;;6.90;99.90;;;;;;4188616;28;20329;-72
2024/02/20 05:44:56;;;;;;;2.73;0.80;;;6.90;99.90;;;;;;4186906;28;20301;-72
2024/02/20 05:46:58;;;;;;;1.43;0.93;;;6.90;99.90;;;;;;4184246;28;20270;-72
2024/02/20 05:49:03;;;;;;;1.20;0.83;;;7.00;99.90;;;;;;4185628;28;20215;-71
2024/02/20 05:51:07;;;;;;;1.97;1.23;;;6.90;99.90;;;;;;4182235;28;20202;-72
2024/02/20 05:53:09;;;;;;;2.03;1.00;;;7.00;99.90;;;;;;4178944;28;20238;-72
2024/02/20 05:55:11;;;;;;;3.80;1.20;;;7.00;99.90;;;;;;4189403;28;20206;-72
2024/02/20 05:57:13;;;;;;;1.97;1.20;;;7.00;99.90;;;;;;4191174;28;20271;-72
2024/02/20 05:59:17;;;;;;;3.33;1.33;;;6.90;99.90;;;;;;4183788;28;20904;-72
2024/02/20 06:01:20;;;;;;;3.80;1.23;;;6.90;99.90;;;;;;4181141;28;20580;-72
2024/02/20 06:03:22;;;;;;;4.30;1.13;;;7.00;99.90;;;;;;4184770;28;20259;-71
2024/02/20 06:05:24;;;;;;;3.97;1.20;;;6.90;99.90;;;;;;4184627;28;20493;-71
2024/02/20 06:07:27;;;;;;;1.70;1.20;;;6.90;99.90;;;;;;4182369;28;20250;-72
2024/02/20 06:09:30;;;;;;;1.87;1.23;;;7.00;99.90;;;;;;4184871;28;20791;-79
2024/02/20 06:11:32;;;;;;;6.60;1.47;;;7.00;99.90;;;;;;4183965;28;20211;-72
2024/02/20 06:13:34;;;;;;;3.40;1.30;;;7.00;99.90;;;;;;4184930;28;20259;-75
2024/02/20 06:15:39;;;;;;;4.70;1.20;;;7.00;99.90;;;;;;4184989;28;20198;-74
2024/02/20 06:17:41;;;;;;;2.83;1.27;;;6.90;99.90;;;;;;4167140;28;20214;-72
2024/02/20 06:19:43;;;;;;;4.83;1.20;;;6.90;99.90;;;;;;4173302;28;20202;-72
2024/02/20 06:21:45;;;;;;;2.67;1.30;;;7.00;99.90;;;;;;4185076;28;20237;-72
2024/02/20 06:23:47;;;;;;;2.40;1.20;;;7.00;99.90;;;;;;4184996;28;20230;-72
2024/02/20 06:25:49;;;;;;;1.30;1.10;;;7.00;99.90;;;;;;4186024;28;20218;-72
2024/02/20 06:27:51;;;;;;;4.77;1.10;;;7.00;99.90;;;;;;4197358;28;20208;-72
2024/02/20 06:29:53;;;;;;;3.43;1.13;;;7.00;99.90;;;;;;4184287;28;20209;-72
2024/02/20 06:31:56;;;;;;;5.67;1.13;;;7.00;99.90;;;;;;4183153;28;20211;-72
2024/02/20 06:34:04;;;;;;;5.13;1.87;;;7.00;99.90;;;;;;4184233;28;20226;-72
2024/02/20 06:36:06;;;;;;;3.87;1.17;;;7.00;99.90;;;;;;4184982;28;20276;-73
2024/02/20 06:38:08;;;;;;;2.87;1.17;;;6.90;99.90;;;;;;4183608;28;20229;-73
2024/02/20 06:40:11;;;;;;;1.30;1.03;;;7.00;99.90;;;;;;4186033;28;20457;-72
2024/02/20 06:42:13;;;;;;;3.60;1.17;;;6.90;99.90;;;;;;4187137;28;20203;-71
2024/02/20 06:44:15;;;;;;;2.33;1.27;;;6.90;99.90;;;;;;4182912;28;20210;-72
2024/02/20 06:46:17;;;;;;;3.03;1.10;;;6.90;99.90;;;;;;4184162;28;20206;-72
2024/02/20 06:48:22;;;;;;;2.77;1.00;;;6.90;99.90;;;;;;4181822;28;20206;-73
2024/02/20 06:50:24;;;;;;;3.03;1.10;;;7.00;99.90;;;;;;4181805;28;20568;-72
2024/02/20 06:52:25;;;;;;;2.13;0.90;;;7.00;99.90;;;;;;4186864;28;20253;-72
2024/02/20 06:54:26;;;;;;;2.80;0.90;;;6.90;99.90;;;;;;4188039;28;20206;-72
2024/02/20 06:56:28;;;;;;;2.27;0.97;;;6.90;99.90;;;;;;4183981;28;20206;-72
2024/02/20 06:58:31;;;;;;;4.73;1.07;;;7.00;99.90;;;;;;4184418;28;20209;-72
2024/02/20 07:00:37;;;;;;;3.87;1.00;;;6.90;99.90;;;;;;4180924;28;20198;-72
2024/02/20 07:02:41;;;;;;;1.97;0.80;;;7.00;99.90;;;;;;4181906;28;20226;-72
2024/02/20 07:04:44;;;;;;;1.30;0.87;;;7.00;99.90;;;;;;4184619;28;20229;-72
2024/02/20 07:06:46;;;;;;;2.07;1.10;;;7.00;99.90;;;;;;4184626;28;20743;-71
2024/02/20 07:08:48;;;;;;;1.63;0.80;;;7.00;99.90;;;;;;4182777;28;20194;-72
2024/02/20 07:10:50;;;;;;;3.90;1.00;;;7.00;99.90;;;;;;4185934;28;20682;-72
2024/02/20 07:12:52;;;;;;;2.67;1.00;;;7.00;99.90;;;;;;4186932;28;20658;-73
2024/02/20 07:14:54;;;;;;;3.60;1.00;;;6.90;99.90;;;;;;4183307;28;20203;-73
2024/02/20 07:16:58;;;;;;;1.73;0.70;;;7.00;99.90;;;;;;4181003;28;20696;-72
2024/02/20 07:19:03;;;;;;;1.63;0.97;;;7.00;99.90;;;;;;4180661;28;20210;-72
2024/02/20 07:21:06;;;;;;;2.60;0.80;;;6.90;99.90;;;;;;4183815;28;20214;-73
2024/02/20 07:23:08;;;;;;;1.83;1.20;;;6.90;99.90;;;;;;4182521;28;20226;-72
2024/02/20 07:25:09;;;;;;;3.67;1.30;;;6.90;99.90;;;;;;4183617;28;20229;-73
2024/02/20 07:27:14;;;;;;;1.40;1.03;;;6.90;99.90;;;;;;4183907;28;20198;-73
2024/02/20 07:29:18;;;;;;;5.87;1.50;;;6.80;99.90;;;;;;4186431;28;20224;-72
2024/02/20 07:31:22;;;;;;;3.80;1.67;;;6.90;99.90;;;;;;4187673;28;20199;-72
2024/02/20 07:33:26;;;;;;;4.00;1.40;;;6.90;99.90;;;;;;4184916;28;20511;-72
2024/02/20 07:35:28;;;;;;;8.37;1.83;;;6.80;99.90;;;;;;4189126;28;20263;-72
2024/02/20 07:37:31;;;;;;;5.87;1.60;;;6.80;99.90;;;;;;4189321;28;20502;-72
2024/02/20 07:39:33;;;;;;;7.03;1.63;;;6.80;99.90;;;;;;4186627;28;20194;-73
2024/02/20 07:41:35;;;;;;;4.63;1.53;;;6.80;99.90;;;;;;4184958;28;20851;-73
2024/02/20 07:43:39;;;;;;;3.93;1.40;;;6.80;99.90;;;;;;4184617;28;20472;-73
2024/02/20 07:45:41;;;;;;;5.23;1.90;;;6.80;99.90;;;;;;4187204;28;20586;-73
2024/02/20 07:47:45;;;;;;;6.13;1.50;;;6.80;99.90;;;;;;4185563;28;20819;-73
2024/02/20 07:49:47;;;;;;;7.93;1.97;;;6.80;99.90;;;;;;4186658;28;20810;-73
2024/02/20 07:51:49;;;;;;;5.97;1.60;;;6.80;99.90;;;;;;4185467;28;20218;-73
2024/02/20 07:53:51;;;;;;;7.93;2.10;;;6.80;99.90;;;;;;4187851;28;21333;-73
2024/02/20 07:55:53;;;;;;;7.07;1.80;;;6.80;99.90;;;;;;4188743;28;20209;-73
2024/02/20 07:57:57;;;;;;;4.87;2.00;;;6.80;99.90;;;;;;4185787;28;20207;-73
2024/02/20 07:59:59;;;;;;;6.87;2.30;;;6.80;99.90;;;;;;4190758;28;20497;-72
2024/02/20 08:02:04;;;;;;;10.57;2.80;;;6.80;99.90;;;;;;4192569;28;20253;-76
2024/02/20 08:04:06;;;;;;;12.43;3.10;;;6.90;99.90;;;;;;4185619;28;20226;-73
2024/02/20 08:06:07;;;;;;;11.50;2.90;;;7.00;99.90;;;;;;4186307;28;20583;-73
2024/02/20 08:08:09;;;;;;;13.63;4.37;;;6.80;99.90;;;;;;4188333;28;20206;-73
2024/02/20 08:10:12;;;;;;;12.37;3.40;;;6.90;99.90;;;;;;4187228;28;20245;-73
2024/02/20 08:12:14;;;;;;;24.50;4.67;;;6.90;99.90;;;;;;4186301;28;20210;-73
2024/02/20 08:14:19;;;;;;;17.33;4.33;;;6.90;99.90;;;;;;4181626;28;20256;-72
2024/02/20 08:16:21;;;;;;;18.40;4.20;;;7.00;99.90;;;;;;4186001;28;20296;-74
2024/02/20 08:18:23;;;;;;;17.13;4.33;;;7.00;99.90;;;;;;4186526;28;20837;-73
2024/02/20 08:20:25;;;;;;;15.90;4.00;;;7.00;99.90;;;;;;4186409;28;20594;-73
2024/02/20 08:22:27;;;;;;;18.07;3.83;;;7.00;99.90;;;;;;4187030;28;20202;-73
2024/02/20 08:24:30;;;;;;;21.07;4.20;;;7.00;99.90;;;;;;4185834;28;20825;-73
2024/02/20 08:26:33;;;;;;;20.77;4.10;;;7.00;99.90;;;;;;4185591;28;20253;-73
2024/02/20 08:28:35;;;;;;;18.73;4.37;;;7.00;99.90;;;;;;4182348;28;20854;-73
2024/02/20 08:30:37;;;;;;;19.30;3.50;;;7.10;99.90;;;;;;4185327;28;20214;-73
2024/02/20 08:32:44;;;;;;;22.00;4.07;;;7.10;99.90;;;;;;4182786;28;20292;-73
2024/02/20 08:34:46;;;;;;;15.50;3.87;;;7.10;99.90;;;;;;4188224;28;20463;-73
2024/02/20 08:36:47;;;;;;;14.57;3.30;;;7.10;99.90;;;;;;4185943;28;20276;-74
2024/02/20 08:38:49;;;;;;;15.47;3.50;;;7.10;99.90;;;;;;4200250;28;20204;-74
2024/02/20 08:40:53;;;;;;;19.77;4.07;;;7.10;99.90;;;;;;4185271;28;20259;-74
2024/02/20 08:42:58;;;;;;;23.93;4.17;;;7.20;99.90;;;;;;4185809;28;20222;-74
2024/02/20 08:45:03;;;;;;;20.03;3.27;;;7.30;99.90;;;;;;4188431;28;20271;-74
2024/02/20 08:47:05;;;;;;;26.93;4.43;;;7.20;99.90;;;;;;4185720;28;20854;-73
2024/02/20 08:49:07;;;;;;;21.00;3.97;;;7.30;99.90;;;;;;4183950;28;20203;-73
2024/02/20 08:51:09;;;;;;;25.50;3.93;;;7.30;99.90;;;;;;4188027;28;20235;-73
2024/02/20 08:53:11;;;;;;;23.03;3.63;;;7.40;99.90;;;;;;4187362;28;20922;-75
2024/02/20 08:55:14;;;;;;;18.37;3.43;;;7.40;99.90;;;;;;4186149;28;20202;-74
2024/02/20 08:57:16;;;;;;;19.63;3.40;;;7.50;99.90;;;;;;4184350;28;20202;-74
2024/02/20 08:59:20;;;;;;;23.77;3.30;;;7.30;99.90;;;;;;4184923;28;20219;-73
2024/02/20 09:01:24;;;;;;;17.87;3.00;;;7.60;99.90;;;;;;4182943;28;20241;-72
2024/02/20 09:03:28;;;;;;;20.83;3.23;;;7.60;99.90;;;;;;4183887;28;20228;-74
2024/02/20 09:05:30;;;;;;;24.63;3.73;;;7.60;99.90;;;;;;4185041;28;20580;-73
2024/02/20 09:07:32;;;;;;;18.47;3.10;;;7.60;99.90;;;;;;4186123;28;20614;-73
2024/02/20 09:09:34;;;;;;;14.37;3.00;;;7.60;99.90;;;;;;4184544;28;20243;-73
2024/02/20 09:11:36;;;;;;;20.87;3.10;;;7.60;99.90;;;;;;4185700;28;20220;-73
2024/02/20 09:13:39;;;;;;;16.60;2.70;;;7.50;99.90;;;;;;4184038;28;20636;-73
2024/02/20 09:15:47;;;;;;;26.10;4.00;;;7.60;99.90;;;;;;4185104;28;20190;-72
2024/02/20 09:17:49;;;;;;;28.97;4.37;;;7.60;99.90;;;;;;4182568;28;20241;-73
2024/02/20 09:19:50;;;;;;;18.33;2.43;;;7.60;99.90;;;;;;4185994;28;20621;-74
2024/02/20 09:21:52;;;;;;;24.50;3.03;;;7.70;99.90;;;;;;4185245;28;20250;-73
2024/02/20 09:23:54;;;;;;;27.83;3.50;;;7.80;99.90;;;;;;4184113;28;20684;-73
2024/02/20 09:25:56;;;;;;;21.63;2.60;;;7.90;99.90;;;;;;4184138;28;20223;-73
2024/02/20 09:27:58;;;;;;;15.37;2.50;;;8.00;99.90;;;;;;4184057;28;20204;-73
2024/02/20 09:30:00;;;;;;;15.97;2.43;;;8.10;99.90;;;;;;4186573;28;20207;-73
2024/02/20 09:32:04;;;;;;;18.57;2.53;;;8.20;99.90;;;;;;4184360;28;20215;-72
2024/02/20 09:34:06;;;;;;;17.63;2.63;;;8.20;99.90;;;;;;4187627;28;20231;-73
2024/02/20 09:36:09;;;;;;;14.97;2.57;;;8.30;99.90;;;;;;4185681;28;20204;-73
2024/02/20 09:38:12;;;;;;;19.67;3.20;;;8.50;99.90;;;;;;4183584;28;20288;-74
2024/02/20 09:40:17;;;;;;;22.63;2.40;;;8.50;99.90;;;;;;4185634;28;20579;-74
2024/02/20 09:42:26;;;;;;;15.70;2.20;;;8.50;99.90;;;;;;4187765;28;20240;-72
2024/02/20 09:44:30;;;;;;;18.20;2.30;;;8.50;99.90;;;;;;4184740;28;20279;-73
2024/02/20 09:46:43;;;;;;;13.20;2.23;;;8.50;99.90;;;;;;4183593;28;20282;-74
2024/02/20 09:48:48;;;;;;;17.97;3.10;;;8.50;99.90;;;;;;4186261;28;20212;-73
2024/02/20 09:50:52;;;;;;;22.43;2.87;;;8.50;99.90;;;;;;4185672;28;20571;-73
2024/02/20 09:52:54;;;;;;;16.50;2.40;;;8.60;99.90;;;;;;4182365;28;20640;-74
2024/02/20 09:54:56;;;;;;;14.80;2.30;;;8.70;99.90;;;;;;4182438;28;20227;-73
2024/02/20 09:57:00;;;;;;;18.03;2.30;;;8.80;99.90;;;;;;4183374;28;20200;-73
2024/02/20 09:59:02;;;;;;;11.60;2.00;;;8.90;99.90;;;;;;4184714;28;20569;-74
2024/02/20 10:01:07;;;;;;;15.77;2.37;;;9.00;99.90;;;;;;4183757;28;20212;-74
2024/02/20 10:03:10;;;;;;;14.70;2.17;;;9.00;99.90;;;;;;4185222;28;20237;-73
2024/02/20 10:05:15;;;;;;;13.67;2.00;;;9.00;99.90;;;;;;4184345;28;20201;-75
2024/02/20 10:07:20;;;;;;;12.20;1.83;;;9.10;99.90;;;;;;4183386;28;20239;-72
2024/02/20 10:09:22;;;;;;;16.07;2.60;;;9.20;99.90;;;;;;4185251;28;20571;-72
2024/02/20 10:11:24;;;;;;;17.60;3.27;;;9.30;99.90;;;;;;4182411;28;20236;-72
2024/02/20 10:13:26;;;;;;;12.60;2.27;;;9.30;99.90;;;;;;4184910;28;20597;-72
2024/02/20 10:15:29;;;;;;;9.70;2.20;;;9.40;99.90;;;;;;4184099;28;20257;-72
2024/02/20 10:17:30;;;;;;;13.67;3.17;;;9.40;99.90;;;;;;4184658;28;20747;-73
2024/02/20 10:19:31;;;;;;;11.97;1.90;;;9.40;99.90;;;;;;4183583;28;20213;-72
2024/02/20 10:21:35;;;;;;;17.30;2.90;;;9.40;99.90;;;;;;4183971;28;20269;-72
2024/02/20 10:23:37;;;;;;;16.13;3.23;;;9.40;99.90;;;;;;4186794;28;20237;-74
2024/02/20 10:25:39;;;;;;;22.07;2.90;;;9.40;99.90;;;;;;4179841;28;20245;-73
2024/02/20 10:27:43;;;;;;;14.63;2.50;;;9.40;99.90;;;;;;4185589;28;20201;-72
2024/02/20 10:29:45;;;;;;;15.80;2.70;;;9.40;99.90;;;;;;4180963;28;20251;-73
2024/02/20 10:31:47;;;;;;;15.40;3.33;;;9.40;99.90;;;;;;4185325;28;20705;-74
2024/02/20 10:33:52;;;;;;;14.27;2.93;;;9.40;99.90;;;;;;4187787;28;20266;-75
2024/02/20 10:36:04;;;;;;;19.20;2.73;;;9.40;99.90;;;;;;4185079;28;20239;-72
2024/02/20 10:38:10;;;;;;;13.03;2.53;;;9.40;99.90;;;;;;4184529;28;20205;-78
2024/02/20 10:40:19;;;;;;;18.00;2.90;;;9.40;99.90;;;;;;4189087;28;20240;-73
2024/02/20 10:42:21;;;;;;;16.67;2.53;;;9.40;99.90;;;;;;4182770;28;20641;-74
2024/02/20 10:44:23;;;;;;;11.37;2.50;;;9.40;99.90;;;;;;4187346;28;20615;-72